• Join FlightAware (Why Join?)
  • Login
  • US Flag GB Flag 
13:41 EDT


 

Airport Tracker/Info


-or-


 

Live Flight TrackerFlight Track Log ✈ DAL6115 ✈ 19-Apr-2013 ✈ KJFK - KROC

Flight Track Log - Related Links

Times and Time Zones

All times are in EDT time to prevent confusion due to time zone crossing. See the DAL6115 flight status page for this flight to view local times or setup timezone preferences in your user account.

Time Position Orientation Groundspeed Altitude Reporting Facility
EDT Latitude Longitude Course Direction KTS MPH feet Rate Location/Type
10:46 40.6000 -73.8000 323° Northwest 170 196 2,600  Level New York TRACON
10:47 40.6000 -73.7167 90° East 276 318 4,700 2,280 Climbing New York TRACON
10:48 40.6500 -73.6333 52° Northeast 298 343 7,000 2,400 Climbing New York TRACON
10:49 40.8968 -74.1401 315° West  Level FlightAware Approximate
10:49 40.7167 -73.5500 43° Northeast 326 375 9,500  Level New York TRACON
10:50 40.9668 -74.2311 316° Northwest  Level FlightAware Approximate
10:50 40.8000 -73.5333 North 340 391 11,300  Level New York TRACON
10:51 41.0376 -74.3210 323° Northwest  Level FlightAware Approximate
10:51 40.8833 -73.5333 360° North 362 417 12,600  Level New York TRACON
10:52 40.9667 -73.6000 329° Northwest 356 410 14,100 1,500 Climbing New York TRACON
10:53 41.0333 -73.7167 307° West 341 392 15,800 1,380 Climbing New York TRACON
10:54 41.0500 -73.8167 282° West 339 390 16,900 600 Climbing New York TRACON
10:55 41.0833 -73.9333 291° West 351 404 17,000 300 Climbing New York TRACON
10:57 41.1425 -74.2150 286° West 365 420 18,000 780 Climbing New York Center
10:58 41.1725 -74.3322 289° West 359 413 19,700 1,680 Climbing New York Center
10:59 41.2000 -74.4550 287° West 348 400 21,500 1,140 Climbing New York Center
11:00 41.2314 -74.5808 288° West 348 400 22,000 240 Climbing New York Center
11:01 41.3003 -74.7008 307° West 377 434 22,000  Level New York Center
11:02 41.3733 -74.8211 309° West 402 463 22,000  Level New York Center
11:03 41.4464 -74.9364 310° West 417 480 22,000  Level New York Center
11:04 41.5250 -75.0686 308° West 417 480 22,000  Level New York Center
11:05 41.5831 -75.1889 303° West 407 468 22,000  Level New York Center
11:06 41.6217 -75.3189 292° West 383 441 22,000  Level New York Center
11:07 41.6586 -75.4464 291° West 372 428 22,000  Level New York Center
11:08 41.6950 -75.5739 291° West 372 428 22,000  Level New York Center
11:09 41.7314 -75.7044 291° West 372 428 22,000  Level New York Center
11:10 41.7678 -75.8294 291° West 372 428 22,000 -360 Level New York Center
11:11 41.8294 -75.9428 306° West 372 428 21,300 -900 Descending New York Center
11:12 41.9019 -76.0486 313° West 377 434 20,300 -660 Descending New York Center
11:13 41.9717 -76.1603 310° West 382 440 20,000 -300 Descending New York Center
11:14 42.0422 -76.2611 313° West 382 440 19,700 -1,020 Descending New York Center
11:15 42.1161 -76.3706 312° West 382 440 18,000 -1,680 Descending New York Center
11:16 42.1781 -76.4667 311° West 387 445 16,500 -1,020 Descending Cleveland Center
11:17 42.2486 -76.5717 312° West 377 434 16,000 -240 Descending Cleveland Center
11:18 42.3147 -76.6742 311° West 371 427 16,100  Climbing Cleveland Center
11:19 42.3806 -76.7742 312° West 371 427 16,100  Level Cleveland Center
11:20 42.4464 -76.8742 312° West 371 427 16,100  Level Cleveland Center
11:21 42.5122 -76.9775 311° West 366 421 16,100 -120 Level Cleveland Center
11:21 42.5342 -77.0128 310° West 352 405 16,000 -900 Descending Cleveland Center
11:22 42.5664 -77.0419 326° Northwest 357 411 15,500 -840 Descending Cleveland Center
11:22 42.5839 -77.0692 311° West 361 415 15,400 -1,380 Descending Cleveland Center
11:23 42.6442 -77.1336 322° Northwest 360 414 14,100 -1,620 Descending Cleveland Center
11:23 42.6614 -77.1525 321° Northwest 355 409 13,800 -1,500 Descending Cleveland Center
11:24 42.7175 -77.2172 320° Northwest 352 405 12,600 -1,500 Descending Cleveland Center
11:24 42.7369 -77.2361 324° Northwest 355 409 12,300 -1,440 Descending Cleveland Center
11:24 42.7800 -77.2875 319° Northwest 307 353 11,300 -1,500 Descending Cleveland Center
11:25 42.8017 -77.3119 320° Northwest 333 383 10,800 -2,220 Descending Cleveland Center
11:25 42.8403 -77.3581 319° Northwest 274 315 9,100 -2,940 Descending Cleveland Center
11:26 42.8642 -77.3850 320° Northwest 289 333 7,900 -2,400 Descending Cleveland Center
11:26 42.8986 -77.4231 321° Northwest 255 293 6,700 -2,040 Descending Cleveland Center
11:27 42.9200 -77.4444 324° Northwest 264 304 5,900 -1,800 Descending Cleveland Center
11:27 42.9661 -77.4592 347° North 268 308 4,900 -1,440 Descending Cleveland Center
11:28 42.9914 -77.4667 348° North 251 289 4,500 -900 Descending Cleveland Center
11:28 43.0397 -77.4839 345° North 270 311 4,000 -540 Descending Cleveland Center
11:29 43.0650 -77.4914 348° North 256 295 4,000  Level Cleveland Center
11:30 43.1111 -77.5003 352° North 260 299 4,000  Level Cleveland Center
11:30 43.1361 -77.4992 North 261 300 4,000 -540 Level Cleveland Center
11:31 43.1800 -77.5056 354° North 247 284 3,500 -1,140 Descending Cleveland Center
11:31 43.2050 -77.5042 North 256 295 2,900 -1,020 Descending Cleveland Center
11:32 43.2486 -77.4936 10° North 242 278 2,500 -600 Descending Cleveland Center